sensor_id;sensor_type;location;lat;lon;timestamp;P1;durP1;ratioP1;P2;durP2;ratioP2
41685;SDS011;27370;42.764;23.432;2023-02-02T00:01:35;4.50;;;1.75;;
41685;SDS011;27370;42.764;23.432;2023-02-02T00:04:00;7.07;;;2.17;;
41685;SDS011;27370;42.764;23.432;2023-02-02T00:06:27;6.57;;;2.42;;
41685;SDS011;27370;42.764;23.432;2023-02-02T00:09:00;5.38;;;2.78;;
41685;SDS011;27370;42.764;23.432;2023-02-02T00:11:27;7.28;;;2.65;;
41685;SDS011;27370;42.764;23.432;2023-02-02T00:13:52;7.35;;;2.83;;
41685;SDS011;27370;42.764;23.432;2023-02-02T00:18:53;6.53;;;2.70;;
41685;SDS011;27370;42.764;23.432;2023-02-02T00:21:20;6.90;;;2.85;;
41685;SDS011;27370;42.764;23.432;2023-02-02T00:23:46;10.82;;;3.28;;
41685;SDS011;27370;42.764;23.432;2023-02-02T00:26:11;8.68;;;2.97;;
41685;SDS011;27370;42.764;23.432;2023-02-02T00:28:37;8.75;;;3.33;;
41685;SDS011;27370;42.764;23.432;2023-02-02T00:31:03;9.70;;;3.20;;
41685;SDS011;27370;42.764;23.432;2023-02-02T00:33:28;7.57;;;2.60;;
41685;SDS011;27370;42.764;23.432;2023-02-02T00:35:54;7.50;;;3.03;;
41685;SDS011;27370;42.764;23.432;2023-02-02T00:38:19;7.95;;;3.17;;
41685;SDS011;27370;42.764;23.432;2023-02-02T00:40:45;9.75;;;3.33;;
41685;SDS011;27370;42.764;23.432;2023-02-02T00:43:10;8.68;;;3.15;;
41685;SDS011;27370;42.764;23.432;2023-02-02T00:45:36;10.20;;;3.72;;
41685;SDS011;27370;42.764;23.432;2023-02-02T00:48:02;9.85;;;3.85;;
41685;SDS011;27370;42.764;23.432;2023-02-02T00:50:28;9.07;;;3.45;;
41685;SDS011;27370;42.764;23.432;2023-02-02T00:52:53;10.77;;;3.40;;
41685;SDS011;27370;42.764;23.432;2023-02-02T00:55:19;7.70;;;3.20;;
41685;SDS011;27370;42.764;23.432;2023-02-02T00:57:45;7.57;;;3.47;;
41685;SDS011;27370;42.764;23.432;2023-02-02T01:02:42;6.10;;;2.90;;
41685;SDS011;27370;42.764;23.432;2023-02-02T01:05:09;8.82;;;3.30;;
41685;SDS011;27370;42.764;23.432;2023-02-02T01:07:36;7.07;;;3.08;;
41685;SDS011;27370;42.764;23.432;2023-02-02T01:10:02;7.85;;;3.28;;
41685;SDS011;27370;42.764;23.432;2023-02-02T01:12:29;7.78;;;3.30;;
41685;SDS011;27370;42.764;23.432;2023-02-02T01:14:54;8.00;;;2.95;;
41685;SDS011;27370;42.764;23.432;2023-02-02T01:17:20;6.68;;;2.92;;
41685;SDS011;27370;42.764;23.432;2023-02-02T01:19:45;7.20;;;3.38;;
41685;SDS011;27370;42.764;23.432;2023-02-02T01:22:11;7.57;;;3.60;;
41685;SDS011;27370;42.764;23.432;2023-02-02T01:24:37;7.57;;;3.53;;
41685;SDS011;27370;42.764;23.432;2023-02-02T01:27:03;10.90;;;4.95;;
41685;SDS011;27370;42.764;23.432;2023-02-02T01:29:29;10.75;;;5.15;;
41685;SDS011;27370;42.764;23.432;2023-02-02T01:31:55;8.18;;;4.00;;
41685;SDS011;27370;42.764;23.432;2023-02-02T01:34:20;9.55;;;4.28;;
41685;SDS011;27370;42.764;23.432;2023-02-02T01:36:46;10.82;;;4.32;;
41685;SDS011;27370;42.764;23.432;2023-02-02T01:39:12;8.05;;;3.67;;
41685;SDS011;27370;42.764;23.432;2023-02-02T01:41:38;9.25;;;4.00;;
41685;SDS011;27370;42.764;23.432;2023-02-02T01:44:49;8.93;;;4.05;;
41685;SDS011;27370;42.764;23.432;2023-02-02T01:47:09;11.48;;;4.30;;
41685;SDS011;27370;42.764;23.432;2023-02-02T01:49:35;12.80;;;4.53;;
41685;SDS011;27370;42.764;23.432;2023-02-02T01:52:02;9.95;;;4.03;;
41685;SDS011;27370;42.764;23.432;2023-02-02T01:56:59;10.63;;;4.10;;
41685;SDS011;27370;42.764;23.432;2023-02-02T01:59:28;9.30;;;4.00;;
41685;SDS011;27370;42.764;23.432;2023-02-02T02:01:55;8.18;;;3.15;;
41685;SDS011;27370;42.764;23.432;2023-02-02T02:04:21;8.52;;;3.80;;
41685;SDS011;27370;42.764;23.432;2023-02-02T02:06:49;10.63;;;3.35;;
41685;SDS011;27370;42.764;23.432;2023-02-02T02:09:18;7.07;;;2.83;;
41685;SDS011;27370;42.764;23.432;2023-02-02T02:11:44;5.22;;;2.65;;
41685;SDS011;27370;42.764;23.432;2023-02-02T02:14:10;4.45;;;2.15;;
41685;SDS011;27370;42.764;23.432;2023-02-02T02:34:22;8.07;;;3.00;;
41685;SDS011;27370;42.764;23.432;2023-02-02T02:37:10;7.72;;;2.90;;
41685;SDS011;27370;42.764;23.432;2023-02-02T02:39:43;6.95;;;2.80;;
41685;SDS011;27370;42.764;23.432;2023-02-02T02:42:16;6.93;;;3.05;;
41685;SDS011;27370;42.764;23.432;2023-02-02T02:44:45;7.45;;;2.60;;
41685;SDS011;27370;42.764;23.432;2023-02-02T02:47:14;7.90;;;3.17;;
41685;SDS011;27370;42.764;23.432;2023-02-02T02:49:41;8.30;;;3.13;;
41685;SDS011;27370;42.764;23.432;2023-02-02T02:52:07;7.70;;;3.15;;
41685;SDS011;27370;42.764;23.432;2023-02-02T02:54:54;9.77;;;3.60;;
41685;SDS011;27370;42.764;23.432;2023-02-02T03:02:56;6.18;;;2.53;;
41685;SDS011;27370;42.764;23.432;2023-02-02T03:10:53;7.95;;;3.15;;
41685;SDS011;27370;42.764;23.432;2023-02-02T03:13:21;7.63;;;3.10;;
41685;SDS011;27370;42.764;23.432;2023-02-02T03:15:46;4.95;;;2.03;;
41685;SDS011;27370;42.764;23.432;2023-02-02T03:18:13;6.32;;;2.58;;
41685;SDS011;27370;42.764;23.432;2023-02-02T03:20:42;6.82;;;2.60;;
41685;SDS011;27370;42.764;23.432;2023-02-02T03:23:09;5.43;;;2.63;;
41685;SDS011;27370;42.764;23.432;2023-02-02T03:25:34;5.43;;;2.17;;
41685;SDS011;27370;42.764;23.432;2023-02-02T03:28:00;6.40;;;2.72;;
41685;SDS011;27370;42.764;23.432;2023-02-02T03:30:26;6.70;;;2.72;;
41685;SDS011;27370;42.764;23.432;2023-02-02T03:32:51;7.93;;;3.00;;
41685;SDS011;27370;42.764;23.432;2023-02-02T03:35:17;5.25;;;2.55;;
41685;SDS011;27370;42.764;23.432;2023-02-02T03:37:45;7.70;;;3.10;;
41685;SDS011;27370;42.764;23.432;2023-02-02T03:40:11;7.20;;;2.83;;
41685;SDS011;27370;42.764;23.432;2023-02-02T03:42:37;7.05;;;2.83;;
41685;SDS011;27370;42.764;23.432;2023-02-02T03:45:03;5.45;;;2.60;;
41685;SDS011;27370;42.764;23.432;2023-02-02T03:47:29;7.18;;;2.83;;
41685;SDS011;27370;42.764;23.432;2023-02-02T03:49:55;7.05;;;2.97;;
41685;SDS011;27370;42.764;23.432;2023-02-02T03:52:21;7.50;;;3.53;;
41685;SDS011;27370;42.764;23.432;2023-02-02T03:54:47;6.10;;;3.28;;
41685;SDS011;27370;42.764;23.432;2023-02-02T03:57:12;10.23;;;3.70;;
41685;SDS011;27370;42.764;23.432;2023-02-02T03:59:38;9.20;;;3.60;;
41685;SDS011;27370;42.764;23.432;2023-02-02T04:02:03;7.18;;;3.30;;
41685;SDS011;27370;42.764;23.432;2023-02-02T04:04:29;8.00;;;3.33;;
41685;SDS011;27370;42.764;23.432;2023-02-02T04:06:54;8.55;;;3.75;;
41685;SDS011;27370;42.764;23.432;2023-02-02T04:09:20;9.45;;;3.53;;
41685;SDS011;27370;42.764;23.432;2023-02-02T04:11:45;8.63;;;3.22;;
41685;SDS011;27370;42.764;23.432;2023-02-02T04:14:11;7.82;;;3.33;;
41685;SDS011;27370;42.764;23.432;2023-02-02T04:16:36;7.90;;;3.58;;
41685;SDS011;27370;42.764;23.432;2023-02-02T04:19:02;10.65;;;3.40;;
41685;SDS011;27370;42.764;23.432;2023-02-02T04:21:28;8.32;;;3.15;;
41685;SDS011;27370;42.764;23.432;2023-02-02T04:23:54;9.07;;;3.33;;
41685;SDS011;27370;42.764;23.432;2023-02-02T04:26:20;8.75;;;3.50;;
41685;SDS011;27370;42.764;23.432;2023-02-02T04:28:49;8.52;;;3.40;;
41685;SDS011;27370;42.764;23.432;2023-02-02T04:31:15;4.88;;;2.35;;
41685;SDS011;27370;42.764;23.432;2023-02-02T04:33:41;7.47;;;3.65;;
41685;SDS011;27370;42.764;23.432;2023-02-02T04:36:06;8.88;;;3.78;;
41685;SDS011;27370;42.764;23.432;2023-02-02T04:38:32;8.50;;;3.55;;
41685;SDS011;27370;42.764;23.432;2023-02-02T04:40:58;8.15;;;3.40;;
41685;SDS011;27370;42.764;23.432;2023-02-02T04:43:24;8.85;;;3.40;;
41685;SDS011;27370;42.764;23.432;2023-02-02T04:45:55;8.25;;;3.60;;
41685;SDS011;27370;42.764;23.432;2023-02-02T04:48:21;8.07;;;3.05;;
41685;SDS011;27370;42.764;23.432;2023-02-02T04:50:46;7.75;;;3.42;;
41685;SDS011;27370;42.764;23.432;2023-02-02T04:53:12;5.97;;;3.08;;
41685;SDS011;27370;42.764;23.432;2023-02-02T04:55:37;6.15;;;2.53;;
41685;SDS011;27370;42.764;23.432;2023-02-02T04:58:04;7.50;;;3.20;;
41685;SDS011;27370;42.764;23.432;2023-02-02T05:00:30;5.85;;;2.63;;
41685;SDS011;27370;42.764;23.432;2023-02-02T05:02:55;9.40;;;3.83;;
41685;SDS011;27370;42.764;23.432;2023-02-02T05:05:21;9.20;;;3.88;;
41685;SDS011;27370;42.764;23.432;2023-02-02T05:07:46;8.38;;;3.30;;
41685;SDS011;27370;42.764;23.432;2023-02-02T05:10:12;8.70;;;3.97;;
41685;SDS011;27370;42.764;23.432;2023-02-02T05:12:37;8.50;;;3.17;;
41685;SDS011;27370;42.764;23.432;2023-02-02T05:15:03;9.68;;;4.00;;
41685;SDS011;27370;42.764;23.432;2023-02-02T05:17:30;10.15;;;3.95;;
41685;SDS011;27370;42.764;23.432;2023-02-02T05:19:55;8.52;;;3.65;;
41685;SDS011;27370;42.764;23.432;2023-02-02T05:22:21;8.35;;;3.47;;
41685;SDS011;27370;42.764;23.432;2023-02-02T05:24:47;9.10;;;3.72;;
41685;SDS011;27370;42.764;23.432;2023-02-02T05:27:12;9.48;;;3.70;;
41685;SDS011;27370;42.764;23.432;2023-02-02T05:29:38;8.63;;;3.75;;
41685;SDS011;27370;42.764;23.432;2023-02-02T05:32:03;7.53;;;3.45;;
41685;SDS011;27370;42.764;23.432;2023-02-02T05:34:29;5.85;;;2.55;;
41685;SDS011;27370;42.764;23.432;2023-02-02T05:36:54;9.38;;;3.38;;
41685;SDS011;27370;42.764;23.432;2023-02-02T05:39:20;8.88;;;3.63;;
41685;SDS011;27370;42.764;23.432;2023-02-02T05:41:45;9.68;;;4.07;;
41685;SDS011;27370;42.764;23.432;2023-02-02T05:44:12;8.45;;;3.83;;
41685;SDS011;27370;42.764;23.432;2023-02-02T05:46:38;9.40;;;3.80;;
41685;SDS011;27370;42.764;23.432;2023-02-02T05:49:05;7.85;;;3.40;;
41685;SDS011;27370;42.764;23.432;2023-02-02T05:51:38;9.63;;;3.70;;
41685;SDS011;27370;42.764;23.432;2023-02-02T05:54:06;7.60;;;3.53;;
41685;SDS011;27370;42.764;23.432;2023-02-02T05:56:32;8.38;;;3.78;;
41685;SDS011;27370;42.764;23.432;2023-02-02T05:58:57;8.00;;;3.35;;
41685;SDS011;27370;42.764;23.432;2023-02-02T06:01:24;10.45;;;3.72;;
41685;SDS011;27370;42.764;23.432;2023-02-02T06:03:49;8.95;;;3.88;;
41685;SDS011;27370;42.764;23.432;2023-02-02T06:06:15;8.43;;;3.83;;
41685;SDS011;27370;42.764;23.432;2023-02-02T06:08:40;9.73;;;3.70;;
41685;SDS011;27370;42.764;23.432;2023-02-02T06:11:13;10.30;;;3.83;;
41685;SDS011;27370;42.764;23.432;2023-02-02T06:13:41;9.18;;;3.38;;
41685;SDS011;27370;42.764;23.432;2023-02-02T06:16:07;9.52;;;4.10;;
41685;SDS011;27370;42.764;23.432;2023-02-02T06:18:33;12.02;;;4.45;;
41685;SDS011;27370;42.764;23.432;2023-02-02T06:20:59;10.23;;;4.38;;
41685;SDS011;27370;42.764;23.432;2023-02-02T06:23:26;10.88;;;4.22;;
41685;SDS011;27370;42.764;23.432;2023-02-02T06:25:52;8.80;;;4.10;;
41685;SDS011;27370;42.764;23.432;2023-02-02T06:28:18;9.30;;;4.53;;
41685;SDS011;27370;42.764;23.432;2023-02-02T06:30:43;10.23;;;4.18;;
41685;SDS011;27370;42.764;23.432;2023-02-02T06:33:09;9.70;;;4.25;;
41685;SDS011;27370;42.764;23.432;2023-02-02T06:35:35;10.05;;;4.32;;
41685;SDS011;27370;42.764;23.432;2023-02-02T06:38:00;8.68;;;4.25;;
41685;SDS011;27370;42.764;23.432;2023-02-02T06:40:26;5.53;;;2.85;;
41685;SDS011;27370;42.764;23.432;2023-02-02T06:42:56;8.40;;;3.22;;
41685;SDS011;27370;42.764;23.432;2023-02-02T06:45:26;9.23;;;3.30;;
41685;SDS011;27370;42.764;23.432;2023-02-02T06:47:53;6.35;;;1.95;;
41685;SDS011;27370;42.764;23.432;2023-02-02T06:50:19;8.82;;;3.80;;
41685;SDS011;27370;42.764;23.432;2023-02-02T06:52:51;9.68;;;4.28;;
41685;SDS011;27370;42.764;23.432;2023-02-02T06:55:17;9.50;;;4.10;;
41685;SDS011;27370;42.764;23.432;2023-02-02T06:57:43;10.50;;;4.30;;
41685;SDS011;27370;42.764;23.432;2023-02-02T07:00:09;3.70;;;1.95;;
41685;SDS011;27370;42.764;23.432;2023-02-02T07:02:36;9.10;;;4.15;;
41685;SDS011;27370;42.764;23.432;2023-02-02T07:05:01;8.90;;;4.07;;
41685;SDS011;27370;42.764;23.432;2023-02-02T07:07:27;8.80;;;4.03;;
41685;SDS011;27370;42.764;23.432;2023-02-02T07:12:21;9.43;;;4.22;;
41685;SDS011;27370;42.764;23.432;2023-02-02T07:14:48;11.38;;;4.55;;
41685;SDS011;27370;42.764;23.432;2023-02-02T07:17:14;10.80;;;4.82;;
41685;SDS011;27370;42.764;23.432;2023-02-02T07:19:40;10.45;;;4.57;;
41685;SDS011;27370;42.764;23.432;2023-02-02T07:22:05;11.63;;;4.80;;
41685;SDS011;27370;42.764;23.432;2023-02-02T07:24:31;5.07;;;2.42;;
41685;SDS011;27370;42.764;23.432;2023-02-02T07:26:57;11.48;;;4.47;;
41685;SDS011;27370;42.764;23.432;2023-02-02T07:29:23;11.05;;;4.55;;
41685;SDS011;27370;42.764;23.432;2023-02-02T07:31:48;12.20;;;5.13;;
41685;SDS011;27370;42.764;23.432;2023-02-02T07:34:14;10.18;;;4.28;;
41685;SDS011;27370;42.764;23.432;2023-02-02T07:36:40;12.30;;;5.20;;
41685;SDS011;27370;42.764;23.432;2023-02-02T07:39:05;11.60;;;3.95;;
41685;SDS011;27370;42.764;23.432;2023-02-02T07:41:35;10.65;;;5.03;;
41685;SDS011;27370;42.764;23.432;2023-02-02T07:44:01;10.65;;;4.63;;
41685;SDS011;27370;42.764;23.432;2023-02-02T07:46:27;10.93;;;4.15;;
41685;SDS011;27370;42.764;23.432;2023-02-02T07:48:53;9.90;;;3.55;;
41685;SDS011;27370;42.764;23.432;2023-02-02T07:51:20;9.10;;;3.85;;
41685;SDS011;27370;42.764;23.432;2023-02-02T07:53:46;9.98;;;4.13;;
41685;SDS011;27370;42.764;23.432;2023-02-02T07:56:20;10.18;;;4.22;;
41685;SDS011;27370;42.764;23.432;2023-02-02T07:58:49;12.25;;;4.70;;
41685;SDS011;27370;42.764;23.432;2023-02-02T08:01:16;9.77;;;4.22;;
41685;SDS011;27370;42.764;23.432;2023-02-02T08:03:41;11.50;;;4.45;;
41685;SDS011;27370;42.764;23.432;2023-02-02T08:06:15;5.88;;;2.33;;
41685;SDS011;27370;42.764;23.432;2023-02-02T08:08:44;6.35;;;2.65;;
41685;SDS011;27370;42.764;23.432;2023-02-02T08:11:10;6.95;;;2.08;;
41685;SDS011;27370;42.764;23.432;2023-02-02T08:13:38;8.05;;;2.75;;
41685;SDS011;27370;42.764;23.432;2023-02-02T08:16:05;5.93;;;2.63;;
41685;SDS011;27370;42.764;23.432;2023-02-02T08:18:31;7.60;;;2.67;;
41685;SDS011;27370;42.764;23.432;2023-02-02T08:20:58;6.10;;;2.65;;
41685;SDS011;27370;42.764;23.432;2023-02-02T08:23:25;5.80;;;2.38;;
41685;SDS011;27370;42.764;23.432;2023-02-02T08:25:51;7.82;;;3.00;;
41685;SDS011;27370;42.764;23.432;2023-02-02T08:28:17;5.32;;;2.75;;
41685;SDS011;27370;42.764;23.432;2023-02-02T08:30:43;6.88;;;2.40;;
41685;SDS011;27370;42.764;23.432;2023-02-02T08:33:09;8.02;;;3.10;;
41685;SDS011;27370;42.764;23.432;2023-02-02T08:35:39;7.47;;;3.30;;
41685;SDS011;27370;42.764;23.432;2023-02-02T08:38:05;8.55;;;4.18;;
41685;SDS011;27370;42.764;23.432;2023-02-02T08:40:31;5.57;;;2.65;;
41685;SDS011;27370;42.764;23.432;2023-02-02T08:42:57;5.15;;;2.28;;
41685;SDS011;27370;42.764;23.432;2023-02-02T08:45:23;5.30;;;2.13;;
41685;SDS011;27370;42.764;23.432;2023-02-02T08:47:50;8.25;;;3.10;;
41685;SDS011;27370;42.764;23.432;2023-02-02T08:50:16;9.43;;;4.03;;
41685;SDS011;27370;42.764;23.432;2023-02-02T08:52:42;10.02;;;3.97;;
41685;SDS011;27370;42.764;23.432;2023-02-02T08:55:08;3.83;;;1.88;;
41685;SDS011;27370;42.764;23.432;2023-02-02T08:57:34;6.47;;;2.67;;
41685;SDS011;27370;42.764;23.432;2023-02-02T09:00:00;5.85;;;1.88;;
41685;SDS011;27370;42.764;23.432;2023-02-02T09:02:28;8.85;;;3.83;;
41685;SDS011;27370;42.764;23.432;2023-02-02T09:04:53;5.53;;;2.17;;
41685;SDS011;27370;42.764;23.432;2023-02-02T09:07:19;6.15;;;2.03;;
41685;SDS011;27370;42.764;23.432;2023-02-02T09:09:44;7.95;;;3.67;;
41685;SDS011;27370;42.764;23.432;2023-02-02T09:12:11;9.18;;;4.18;;
41685;SDS011;27370;42.764;23.432;2023-02-02T09:14:36;8.77;;;3.70;;
41685;SDS011;27370;42.764;23.432;2023-02-02T09:17:02;8.68;;;3.47;;
41685;SDS011;27370;42.764;23.432;2023-02-02T09:19:27;11.73;;;3.85;;
41685;SDS011;27370;42.764;23.432;2023-02-02T09:21:53;10.68;;;3.50;;
41685;SDS011;27370;42.764;23.432;2023-02-02T09:24:18;7.55;;;3.22;;
41685;SDS011;27370;42.764;23.432;2023-02-02T09:26:44;10.18;;;3.33;;
41685;SDS011;27370;42.764;23.432;2023-02-02T09:29:10;10.35;;;3.60;;
41685;SDS011;27370;42.764;23.432;2023-02-02T09:31:37;9.05;;;3.45;;
41685;SDS011;27370;42.764;23.432;2023-02-02T09:34:04;9.43;;;3.40;;
41685;SDS011;27370;42.764;23.432;2023-02-02T09:36:31;9.40;;;3.65;;
41685;SDS011;27370;42.764;23.432;2023-02-02T09:38:57;8.85;;;2.72;;
41685;SDS011;27370;42.764;23.432;2023-02-02T09:44:10;9.45;;;3.08;;
41685;SDS011;27370;42.764;23.432;2023-02-02T09:52:28;10.90;;;4.28;;
41685;SDS011;27370;42.764;23.432;2023-02-02T09:55:08;8.35;;;3.22;;
41685;SDS011;27370;42.764;23.432;2023-02-02T09:57:40;8.15;;;2.83;;
41685;SDS011;27370;42.764;23.432;2023-02-02T10:03:23;8.75;;;2.85;;
41685;SDS011;27370;42.764;23.432;2023-02-02T10:05:58;8.60;;;3.10;;
41685;SDS011;27370;42.764;23.432;2023-02-02T10:10:55;8.50;;;3.03;;
41685;SDS011;27370;42.764;23.432;2023-02-02T10:13:30;8.85;;;2.92;;
41685;SDS011;27370;42.764;23.432;2023-02-02T10:24:30;8.20;;;3.63;;
41685;SDS011;27370;42.764;23.432;2023-02-02T10:26:59;8.50;;;3.55;;
41685;SDS011;27370;42.764;23.432;2023-02-02T10:32:25;7.60;;;2.50;;
41685;SDS011;27370;42.764;23.432;2023-02-02T10:35:00;6.53;;;2.85;;
41685;SDS011;27370;42.764;23.432;2023-02-02T10:46:15;13.95;;;2.90;;
41685;SDS011;27370;42.764;23.432;2023-02-02T10:48:46;6.75;;;2.40;;
41685;SDS011;27370;42.764;23.432;2023-02-02T10:51:22;6.03;;;2.55;;
41685;SDS011;27370;42.764;23.432;2023-02-02T10:53:53;11.63;;;2.80;;
41685;SDS011;27370;42.764;23.432;2023-02-02T10:56:23;5.50;;;2.42;;
41685;SDS011;27370;42.764;23.432;2023-02-02T10:59:40;5.25;;;2.38;;
41685;SDS011;27370;42.764;23.432;2023-02-02T11:01:51;6.43;;;2.65;;
41685;SDS011;27370;42.764;23.432;2023-02-02T11:04:17;7.05;;;2.53;;
41685;SDS011;27370;42.764;23.432;2023-02-02T11:07:05;8.57;;;3.13;;
41685;SDS011;27370;42.764;23.432;2023-02-02T11:09:31;12.73;;;3.40;;
41685;SDS011;27370;42.764;23.432;2023-02-02T11:12:19;8.30;;;3.20;;
41685;SDS011;27370;42.764;23.432;2023-02-02T11:14:53;6.30;;;2.72;;
41685;SDS011;27370;42.764;23.432;2023-02-02T11:17:29;7.53;;;2.90;;
41685;SDS011;27370;42.764;23.432;2023-02-02T11:19:57;6.70;;;2.35;;
41685;SDS011;27370;42.764;23.432;2023-02-02T11:22:33;7.53;;;2.22;;
41685;SDS011;27370;42.764;23.432;2023-02-02T11:27:56;6.53;;;2.53;;
41685;SDS011;27370;42.764;23.432;2023-02-02T11:30:31;5.78;;;2.50;;
41685;SDS011;27370;42.764;23.432;2023-02-02T11:33:07;6.68;;;2.92;;
41685;SDS011;27370;42.764;23.432;2023-02-02T11:36:19;8.13;;;3.15;;
41685;SDS011;27370;42.764;23.432;2023-02-02T11:38:45;7.72;;;2.90;;
41685;SDS011;27370;42.764;23.432;2023-02-02T11:41:11;6.50;;;2.38;;
41685;SDS011;27370;42.764;23.432;2023-02-02T11:43:49;7.03;;;2.70;;
41685;SDS011;27370;42.764;23.432;2023-02-02T11:46:20;9.13;;;2.53;;
41685;SDS011;27370;42.764;23.432;2023-02-02T11:48:52;6.00;;;2.70;;
41685;SDS011;27370;42.764;23.432;2023-02-02T11:51:37;7.00;;;3.00;;
41685;SDS011;27370;42.764;23.432;2023-02-02T11:54:04;9.55;;;3.00;;
41685;SDS011;27370;42.764;23.432;2023-02-02T11:56:39;7.95;;;3.20;;
41685;SDS011;27370;42.764;23.432;2023-02-02T11:59:27;7.90;;;3.17;;
41685;SDS011;27370;42.764;23.432;2023-02-02T12:02:35;8.68;;;3.33;;
41685;SDS011;27370;42.764;23.432;2023-02-02T12:07:55;6.72;;;2.65;;
41685;SDS011;27370;42.764;23.432;2023-02-02T12:10:25;6.60;;;2.63;;
41685;SDS011;27370;42.764;23.432;2023-02-02T12:21:05;6.10;;;2.17;;
41685;SDS011;27370;42.764;23.432;2023-02-02T12:26:26;5.45;;;2.28;;
41685;SDS011;27370;42.764;23.432;2023-02-02T13:01:53;3.35;;;1.70;;
41685;SDS011;27370;42.764;23.432;2023-02-02T13:12:47;3.25;;;1.95;;
41685;SDS011;27370;42.764;23.432;2023-02-02T13:15:18;4.68;;;1.95;;
41685;SDS011;27370;42.764;23.432;2023-02-02T13:17:48;5.13;;;2.10;;
41685;SDS011;27370;42.764;23.432;2023-02-02T13:20:20;4.65;;;1.85;;
41685;SDS011;27370;42.764;23.432;2023-02-02T13:22:52;6.90;;;2.42;;
41685;SDS011;27370;42.764;23.432;2023-02-02T13:25:28;5.05;;;1.60;;
41685;SDS011;27370;42.764;23.432;2023-02-02T13:27:58;4.57;;;1.63;;
41685;SDS011;27370;42.764;23.432;2023-02-02T13:30:27;7.85;;;2.13;;
41685;SDS011;27370;42.764;23.432;2023-02-02T13:33:12;5.25;;;1.75;;
41685;SDS011;27370;42.764;23.432;2023-02-02T13:35:56;5.43;;;1.60;;
41685;SDS011;27370;42.764;23.432;2023-02-02T13:38:27;4.60;;;2.08;;
41685;SDS011;27370;42.764;23.432;2023-02-02T13:41:00;5.38;;;1.75;;
41685;SDS011;27370;42.764;23.432;2023-02-02T14:01:54;8.32;;;2.60;;
41685;SDS011;27370;42.764;23.432;2023-02-02T14:04:23;7.60;;;2.60;;
41685;SDS011;27370;42.764;23.432;2023-02-02T14:06:53;6.07;;;2.65;;
41685;SDS011;27370;42.764;23.432;2023-02-02T14:09:29;9.65;;;2.67;;
41685;SDS011;27370;42.764;23.432;2023-02-02T14:11:59;6.68;;;2.80;;
41685;SDS011;27370;42.764;23.432;2023-02-02T14:14:27;7.40;;;2.37;;
41685;SDS011;27370;42.764;23.432;2023-02-02T14:34:25;6.18;;;2.45;;
41685;SDS011;27370;42.764;23.432;2023-02-02T14:45:37;5.07;;;2.40;;
41685;SDS011;27370;42.764;23.432;2023-02-02T14:48:22;6.13;;;2.45;;
41685;SDS011;27370;42.764;23.432;2023-02-02T14:50:56;7.55;;;2.80;;
41685;SDS011;27370;42.764;23.432;2023-02-02T14:56:03;6.00;;;2.33;;
41685;SDS011;27370;42.764;23.432;2023-02-02T14:58:35;3.97;;;1.92;;
41685;SDS011;27370;42.764;23.432;2023-02-02T15:03:54;5.88;;;2.65;;
41685;SDS011;27370;42.764;23.432;2023-02-02T15:25:23;3.42;;;1.33;;
41685;SDS011;27370;42.764;23.432;2023-02-02T15:30:42;4.82;;;1.88;;
41685;SDS011;27370;42.764;23.432;2023-02-02T15:33:35;3.70;;;1.60;;
41685;SDS011;27370;42.764;23.432;2023-02-02T15:36:43;4.78;;;2.30;;
41685;SDS011;27370;42.764;23.432;2023-02-02T15:38:56;7.50;;;3.35;;
41685;SDS011;27370;42.764;23.432;2023-02-02T15:41:26;8.88;;;3.58;;
41685;SDS011;27370;42.764;23.432;2023-02-02T15:43:59;6.50;;;2.90;;
41685;SDS011;27370;42.764;23.432;2023-02-02T15:46:30;6.22;;;2.85;;
41685;SDS011;27370;42.764;23.432;2023-02-02T15:51:46;6.40;;;2.70;;
41685;SDS011;27370;42.764;23.432;2023-02-02T15:56:53;8.07;;;3.65;;
41685;SDS011;27370;42.764;23.432;2023-02-02T15:59:22;5.80;;;2.67;;
41685;SDS011;27370;42.764;23.432;2023-02-02T16:01:56;8.30;;;3.25;;
41685;SDS011;27370;42.764;23.432;2023-02-02T16:04:32;5.95;;;2.45;;
41685;SDS011;27370;42.764;23.432;2023-02-02T16:07:00;7.40;;;3.33;;
41685;SDS011;27370;42.764;23.432;2023-02-02T16:09:27;9.98;;;4.40;;
41685;SDS011;27370;42.764;23.432;2023-02-02T16:11:59;9.90;;;4.28;;
41685;SDS011;27370;42.764;23.432;2023-02-02T16:14:28;6.20;;;2.50;;
41685;SDS011;27370;42.764;23.432;2023-02-02T16:16:54;9.02;;;3.33;;
41685;SDS011;27370;42.764;23.432;2023-02-02T16:19:28;8.07;;;2.78;;
41685;SDS011;27370;42.764;23.432;2023-02-02T16:21:59;8.63;;;3.30;;
41685;SDS011;27370;42.764;23.432;2023-02-02T16:24:28;5.90;;;2.45;;
41685;SDS011;27370;42.764;23.432;2023-02-02T16:26:57;6.60;;;2.58;;
41685;SDS011;27370;42.764;23.432;2023-02-02T16:29:24;3.47;;;1.60;;
41685;SDS011;27370;42.764;23.432;2023-02-02T16:31:52;3.35;;;1.60;;
41685;SDS011;27370;42.764;23.432;2023-02-02T16:37:19;5.88;;;2.30;;
41685;SDS011;27370;42.764;23.432;2023-02-02T16:39:49;5.43;;;2.22;;
41685;SDS011;27370;42.764;23.432;2023-02-02T16:42:21;6.30;;;2.33;;
41685;SDS011;27370;42.764;23.432;2023-02-02T16:44:49;5.70;;;2.83;;
41685;SDS011;27370;42.764;23.432;2023-02-02T16:47:48;4.70;;;2.25;;
41685;SDS011;27370;42.764;23.432;2023-02-02T16:52:32;5.93;;;2.28;;
41685;SDS011;27370;42.764;23.432;2023-02-02T16:54:59;12.00;;;4.45;;
41685;SDS011;27370;42.764;23.432;2023-02-02T16:57:26;11.90;;;4.18;;
41685;SDS011;27370;42.764;23.432;2023-02-02T16:59:56;6.03;;;3.20;;
41685;SDS011;27370;42.764;23.432;2023-02-02T17:02:31;5.40;;;2.72;;
41685;SDS011;27370;42.764;23.432;2023-02-02T17:05:01;10.38;;;4.60;;
41685;SDS011;27370;42.764;23.432;2023-02-02T17:07:48;11.98;;;5.72;;
41685;SDS011;27370;42.764;23.432;2023-02-02T17:10:36;9.90;;;4.78;;
41685;SDS011;27370;42.764;23.432;2023-02-02T17:13:32;10.45;;;4.60;;
41685;SDS011;27370;42.764;23.432;2023-02-02T17:15:55;10.18;;;4.90;;
41685;SDS011;27370;42.764;23.432;2023-02-02T17:18:21;11.10;;;5.40;;
41685;SDS011;27370;42.764;23.432;2023-02-02T17:20:47;10.68;;;5.20;;
41685;SDS011;27370;42.764;23.432;2023-02-02T17:23:20;10.57;;;4.93;;
41685;SDS011;27370;42.764;23.432;2023-02-02T17:25:46;11.73;;;5.22;;
41685;SDS011;27370;42.764;23.432;2023-02-02T17:28:15;9.45;;;5.03;;
41685;SDS011;27370;42.764;23.432;2023-02-02T17:30:48;9.25;;;4.60;;
41685;SDS011;27370;42.764;23.432;2023-02-02T17:33:21;9.13;;;4.65;;
41685;SDS011;27370;42.764;23.432;2023-02-02T17:35:48;7.97;;;4.25;;
41685;SDS011;27370;42.764;23.432;2023-02-02T17:38:17;8.50;;;3.77;;
41685;SDS011;27370;42.764;23.432;2023-02-02T17:40:43;16.20;;;7.75;;
41685;SDS011;27370;42.764;23.432;2023-02-02T17:43:09;10.63;;;5.63;;
41685;SDS011;27370;42.764;23.432;2023-02-02T17:45:36;13.02;;;6.28;;
41685;SDS011;27370;42.764;23.432;2023-02-02T17:48:03;12.13;;;5.80;;
41685;SDS011;27370;42.764;23.432;2023-02-02T17:50:30;11.23;;;4.93;;
41685;SDS011;27370;42.764;23.432;2023-02-02T17:52:56;10.27;;;5.22;;
41685;SDS011;27370;42.764;23.432;2023-02-02T17:55:26;9.38;;;4.15;;
41685;SDS011;27370;42.764;23.432;2023-02-02T17:57:54;12.45;;;4.90;;
41685;SDS011;27370;42.764;23.432;2023-02-02T18:00:21;10.95;;;5.05;;
41685;SDS011;27370;42.764;23.432;2023-02-02T18:02:49;11.85;;;5.43;;
41685;SDS011;27370;42.764;23.432;2023-02-02T18:05:16;9.85;;;4.97;;
41685;SDS011;27370;42.764;23.432;2023-02-02T18:07:42;13.18;;;5.93;;
41685;SDS011;27370;42.764;23.432;2023-02-02T18:10:09;12.27;;;5.57;;
41685;SDS011;27370;42.764;23.432;2023-02-02T18:12:36;9.23;;;4.40;;
41685;SDS011;27370;42.764;23.432;2023-02-02T18:15:03;8.02;;;3.78;;